Time,TemperatureF,DewpointF,PressureIn,WindDirection,WindDirectionDegrees,WindSpeedMPH,WindSpeedGustMPH,Humidity,HourlyPrecipIn,Conditions,Clouds,dailyrainin,SoftwareType,DateUTC
2013-05-27 00:00:00,61.7,55.1,30.20,West,273,0.0,4.0,79,0.00,,,0.01,Wunderground v.1.15,2013-05-27 04:00:00,
2013-05-27 00:05:00,61.7,55.5,30.20,West,273,0.0,4.0,80,0.00,,,0.00,Wunderground v.1.15,2013-05-27 04:05:00,
2013-05-27 00:10:00,61.7,55.8,30.20,West,273,0.0,4.0,81,0.00,,,0.00,Wunderground v.1.15,2013-05-27 04:10:00,
2013-05-27 00:15:00,61.6,55.7,30.20,West,273,0.0,4.0,81,0.00,,,0.00,Wunderground v.1.15,2013-05-27 04:15:00,
2013-05-27 00:20:00,61.5,55.6,30.20,West,273,0.0,4.0,81,0.00,,,0.00,Wunderground v.1.15,2013-05-27 04:20:00,
2013-05-27 00:25:00,61.4,55.5,30.20,West,273,0.0,4.0,81,0.00,,,0.00,Wunderground v.1.15,2013-05-27 04:25:00,
2013-05-27 00:30:00,61.4,55.5,30.20,West,273,0.0,4.0,81,0.00,,,0.00,Wunderground v.1.15,2013-05-27 04:30:00,
2013-05-27 00:35:00,61.3,55.4,30.20,West,273,0.0,4.0,81,0.00,,,0.00,Wunderground v.1.15,2013-05-27 04:35:00,
2013-05-27 00:40:00,61.2,55.3,30.20,West,273,0.0,4.0,81,0.00,,,0.00,Wunderground v.1.15,2013-05-27 04:40:00,
2013-05-27 00:45:00,61.1,55.6,30.20,West,273,0.0,4.0,82,0.00,,,0.00,Wunderground v.1.15,2013-05-27 04:45:00,
2013-05-27 00:50:00,60.9,55.4,30.20,West,273,0.0,4.0,82,0.00,,,0.00,Wunderground v.1.15,2013-05-27 04:50:00,
2013-05-27 00:55:00,60.9,55.4,30.20,West,273,0.0,4.0,82,0.00,,,0.00,Wunderground v.1.15,2013-05-27 04:55:00,
2013-05-27 01:00:00,60.7,55.2,30.20,West,273,0.0,4.0,82,0.00,,,0.00,Wunderground v.1.15,2013-05-27 05:00:00,
2013-05-27 01:05:00,60.7,55.2,30.20,West,273,0.0,4.0,82,0.00,,,0.00,Wunderground v.1.15,2013-05-27 05:05:00,
2013-05-27 01:10:00,60.6,55.1,30.20,West,273,0.0,4.0,82,0.00,,,0.00,Wunderground v.1.15,2013-05-27 05:10:00,
2013-05-27 01:15:00,60.5,55.3,30.20,West,273,0.0,4.0,83,0.00,,,0.00,Wunderground v.1.15,2013-05-27 05:15:00,
2013-05-27 01:20:00,60.4,55.2,30.20,West,273,0.0,4.0,83,0.00,,,0.00,Wunderground v.1.15,2013-05-27 05:20:00,
2013-05-27 01:25:00,60.4,55.2,30.20,West,273,0.0,4.0,83,0.00,,,0.00,Wunderground v.1.15,2013-05-27 05:25:00,
2013-05-27 01:30:00,60.3,54.8,30.20,West,273,0.0,4.0,82,0.00,,,0.00,Wunderground v.1.15,2013-05-27 05:30:00,
2013-05-27 01:35:00,60.3,54.8,30.20,West,273,0.0,4.0,82,0.00,,,0.00,Wunderground v.1.15,2013-05-27 05:35:00,
2013-05-27 01:40:00,60.2,55.0,30.20,West,273,0.0,4.0,83,0.00,,,0.00,Wunderground v.1.15,2013-05-27 05:40:00,
2013-05-27 01:45:00,60.1,54.9,30.20,West,273,0.0,4.0,83,0.00,,,0.00,Wunderground v.1.15,2013-05-27 05:45:00,
2013-05-27 01:50:00,60.0,54.8,30.20,West,274,0.0,4.0,83,0.00,,,0.00,Wunderground v.1.15,2013-05-27 05:50:00,
2013-05-27 01:55:00,59.9,55.1,30.20,West,273,0.0,4.0,84,0.00,,,0.00,Wunderground v.1.15,2013-05-27 05:55:00,
2013-05-27 02:00:00,59.9,54.7,30.20,West,273,0.0,4.0,83,0.00,,,0.00,Wunderground v.1.15,2013-05-27 06:00:00,
2013-05-27 02:05:00,59.8,54.6,30.20,West,273,0.0,4.0,83,0.00,,,0.00,Wunderground v.1.15,2013-05-27 06:05:00,
2013-05-27 02:15:00,59.8,55.0,30.20,West,273,0.0,4.0,84,0.00,,,0.00,Wunderground v.1.15,2013-05-27 06:15:00,
2013-05-27 02:20:00,59.7,54.9,30.20,West,273,0.0,4.0,84,0.00,,,0.00,Wunderground v.1.15,2013-05-27 06:20:00,
2013-05-27 02:25:00,59.7,54.5,30.20,West,273,0.0,4.0,83,0.00,,,0.00,Wunderground v.1.15,2013-05-27 06:25:00,
2013-05-27 02:30:00,59.6,54.8,30.20,West,273,0.0,4.0,84,0.00,,,0.00,Wunderground v.1.15,2013-05-27 06:30:00,
2013-05-27 02:35:00,59.5,54.7,30.20,West,273,0.0,4.0,84,0.00,,,0.00,Wunderground v.1.15,2013-05-27 06:35:00,
2013-05-27 02:40:00,59.4,54.6,30.20,West,273,0.0,4.0,84,0.00,,,0.00,Wunderground v.1.15,2013-05-27 06:40:00,
2013-05-27 02:45:00,59.4,54.9,30.20,West,273,0.0,4.0,85,0.00,,,0.00,Wunderground v.1.15,2013-05-27 06:45:00,
2013-05-27 02:50:00,59.3,54.8,30.20,West,273,0.0,4.0,85,0.00,,,0.00,Wunderground v.1.15,2013-05-27 06:50:00,
2013-05-27 02:55:00,59.4,54.9,30.20,West,274,0.0,4.0,85,0.00,,,0.00,Wunderground v.1.15,2013-05-27 06:55:00,
2013-05-27 03:05:00,59.5,55.3,30.20,West,273,0.0,4.0,86,0.00,,,0.00,Wunderground v.1.15,2013-05-27 07:05:00,
2013-05-27 03:10:00,59.7,55.8,30.20,West,273,0.0,4.0,87,0.00,,,0.00,Wunderground v.1.15,2013-05-27 07:10:00,
2013-05-27 03:15:00,59.9,56.3,30.20,West,273,0.0,4.0,88,0.00,,,0.00,Wunderground v.1.15,2013-05-27 07:15:00,
2013-05-27 03:20:00,60.0,56.4,30.20,West,273,0.0,4.0,88,0.00,,,0.00,Wunderground v.1.15,2013-05-27 07:20:00,
2013-05-27 03:25:00,60.1,56.5,30.20,West,273,0.0,4.0,88,0.00,,,0.00,Wunderground v.1.15,2013-05-27 07:25:00,
2013-05-27 03:30:00,60.1,56.5,30.20,West,273,0.0,4.0,88,0.00,,,0.00,Wunderground v.1.15,2013-05-27 07:30:00,
2013-05-27 03:35:00,60.0,56.4,30.20,West,273,0.0,4.0,88,0.00,,,0.00,Wunderground v.1.15,2013-05-27 07:35:00,
2013-05-27 03:40:00,60.0,56.4,30.20,West,273,0.0,4.0,88,0.00,,,0.00,Wunderground v.1.15,2013-05-27 07:40:00,
2013-05-27 03:45:00,59.9,56.6,30.20,West,273,0.0,4.0,89,0.00,,,0.00,Wunderground v.1.15,2013-05-27 07:45:00,
2013-05-27 03:50:00,59.8,56.6,30.20,West,273,0.0,4.0,89,0.00,,,0.00,Wunderground v.1.15,2013-05-27 07:50:00,
2013-05-27 03:55:00,59.8,56.6,30.20,West,273,0.0,4.0,89,0.00,,,0.00,Wunderground v.1.15,2013-05-27 07:55:00,
2013-05-27 04:00:00,59.6,56.4,30.19,West,273,0.0,4.0,89,0.00,,,0.00,Wunderground v.1.15,2013-05-27 08:00:00,
2013-05-27 04:05:00,59.5,56.3,30.20,West,273,0.0,4.0,89,0.00,,,0.00,Wunderground v.1.15,2013-05-27 08:05:00,
2013-05-27 04:10:00,59.3,56.1,30.20,West,273,0.0,4.0,89,0.00,,,0.00,Wunderground v.1.15,2013-05-27 08:10:00,
2013-05-27 04:15:00,59.2,55.6,30.20,West,274,0.0,4.0,88,0.00,,,0.00,Wunderground v.1.15,2013-05-27 08:15:00,
2013-05-27 04:20:00,59.0,55.4,30.20,West,274,0.0,4.0,88,0.00,,,0.00,Wunderground v.1.15,2013-05-27 08:20:00,
2013-05-27 04:25:00,59.0,55.4,30.20,West,273,0.0,4.0,88,0.00,,,0.00,Wunderground v.1.15,2013-05-27 08:25:00,
2013-05-27 04:30:00,58.9,55.7,30.20,West,273,0.0,4.0,89,0.00,,,0.00,Wunderground v.1.15,2013-05-27 08:30:00,
2013-05-27 04:35:00,58.9,55.7,30.20,West,274,0.0,4.0,89,0.00,,,0.00,Wunderground v.1.15,2013-05-27 08:35:00,
2013-05-27 04:40:00,58.8,55.6,30.20,West,274,0.0,4.0,89,0.00,,,0.00,Wunderground v.1.15,2013-05-27 08:40:00,
2013-05-27 04:45:00,58.6,55.4,30.20,West,274,0.0,4.0,89,0.00,,,0.00,Wunderground v.1.15,2013-05-27 08:45:00,
2013-05-27 04:50:00,58.5,55.3,30.20,West,274,0.0,4.0,89,0.00,,,0.00,Wunderground v.1.15,2013-05-27 08:50:00,
2013-05-27 04:55:00,58.5,55.6,30.20,West,274,0.0,4.0,90,0.00,,,0.00,Wunderground v.1.15,2013-05-27 08:55:00,
2013-05-27 05:00:00,58.5,55.6,30.20,West,273,0.0,4.0,90,0.00,,,0.00,Wunderground v.1.15,2013-05-27 09:00:00,
2013-05-27 05:05:00,58.4,55.2,30.20,West,273,0.0,4.0,89,0.00,,,0.00,Wunderground v.1.15,2013-05-27 09:05:00,
2013-05-27 05:10:00,58.4,55.5,30.20,West,274,0.0,4.0,90,0.00,,,0.00,Wunderground v.1.15,2013-05-27 09:10:00,
2013-05-27 05:15:00,58.3,55.4,30.21,West,274,0.0,4.0,90,0.00,,,0.00,Wunderground v.1.15,2013-05-27 09:15:00,
2013-05-27 05:20:00,58.2,55.3,30.21,West,274,0.0,4.0,90,0.00,,,0.00,Wunderground v.1.15,2013-05-27 09:20:00,
2013-05-27 05:25:00,58.2,55.3,30.21,West,274,0.0,4.0,90,0.00,,,0.00,Wunderground v.1.15,2013-05-27 09:25:00,
2013-05-27 05:30:00,58.1,55.2,30.21,West,273,0.0,4.0,90,0.00,,,0.00,Wunderground v.1.15,2013-05-27 09:30:00,
2013-05-27 05:35:00,58.0,55.4,30.21,West,274,0.0,4.0,91,0.00,,,0.00,Wunderground v.1.15,2013-05-27 09:35:00,
2013-05-27 05:40:00,57.9,55.3,30.22,West,273,0.0,4.0,91,0.00,,,0.00,Wunderground v.1.15,2013-05-27 09:40:00,
2013-05-27 05:45:00,57.8,55.2,30.22,West,273,0.0,4.0,91,0.00,,,0.00,Wunderground v.1.15,2013-05-27 09:45:00,
2013-05-27 05:50:00,57.7,55.1,30.22,West,274,0.0,4.0,91,0.00,,,0.00,Wunderground v.1.15,2013-05-27 09:50:00,
2013-05-27 05:55:00,57.7,54.8,30.22,West,273,0.0,4.0,90,0.00,,,0.00,Wunderground v.1.15,2013-05-27 09:55:00,
2013-05-27 06:00:00,57.6,55.0,30.22,West,274,0.0,4.0,91,0.00,,,0.00,Wunderground v.1.15,2013-05-27 10:00:00,
2013-05-27 06:05:00,57.5,54.9,30.23,West,274,0.0,4.0,91,0.00,,,0.00,Wunderground v.1.15,2013-05-27 10:05:00,
2013-05-27 06:10:00,57.5,54.9,30.23,West,274,0.0,4.0,91,0.00,,,0.00,Wunderground v.1.15,2013-05-27 10:10:00,
2013-05-27 06:15:00,57.5,55.2,30.23,West,274,0.0,4.0,92,0.00,,,0.00,Wunderground v.1.15,2013-05-27 10:15:00,
2013-05-27 06:20:00,57.4,54.8,30.23,West,274,0.0,4.0,91,0.00,,,0.00,Wunderground v.1.15,2013-05-27 10:20:00,
2013-05-27 06:25:00,57.3,54.7,30.23,West,274,0.0,4.0,91,0.00,,,0.00,Wunderground v.1.15,2013-05-27 10:25:00,
2013-05-27 06:30:00,57.3,54.7,30.24,West,274,0.0,4.0,91,0.00,,,0.00,Wunderground v.1.15,2013-05-27 10:30:00,
2013-05-27 06:35:00,57.2,54.9,30.24,West,273,0.0,4.0,92,0.00,,,0.00,Wunderground v.1.15,2013-05-27 10:35:00,
2013-05-27 06:40:00,57.2,54.9,30.24,West,274,0.0,4.0,92,0.00,,,0.00,Wunderground v.1.15,2013-05-27 10:40:00,
2013-05-27 06:45:00,57.3,55.0,30.24,ENE,65,0.0,4.0,92,0.00,,,0.00,Wunderground v.1.15,2013-05-27 10:45:00,
2013-05-27 06:50:00,57.3,55.0,30.25,ENE,65,0.0,4.0,92,0.00,,,0.00,Wunderground v.1.15,2013-05-27 10:50:00,
2013-05-27 06:55:00,57.4,55.1,30.25,ENE,65,0.0,4.0,92,0.00,,,0.00,Wunderground v.1.15,2013-05-27 10:55:00,
2013-05-27 07:00:00,57.6,55.3,30.25,ENE,65,0.0,4.0,92,0.00,,,0.00,Wunderground v.1.15,2013-05-27 11:00:00,
2013-05-27 07:05:00,57.7,55.4,30.25,ENE,65,0.0,4.0,92,0.00,,,0.00,Wunderground v.1.15,2013-05-27 11:05:00,
2013-05-27 07:10:00,57.9,55.6,30.25,ENE,65,0.0,4.0,92,0.00,,,0.00,Wunderground v.1.15,2013-05-27 11:10:00,
2013-05-27 07:15:00,58.0,55.7,30.25,ENE,65,0.0,4.0,92,0.00,,,0.00,Wunderground v.1.15,2013-05-27 11:15:00,
2013-05-27 07:20:00,58.1,55.8,30.25,ENE,65,0.0,4.0,92,0.00,,,0.00,Wunderground v.1.15,2013-05-27 11:20:00,
2013-05-27 07:25:00,58.4,56.1,30.25,ENE,65,0.0,4.0,92,0.00,,,0.00,Wunderground v.1.15,2013-05-27 11:25:00,
2013-05-27 07:30:00,58.5,56.2,30.25,ENE,65,0.0,4.0,92,0.00,,,0.00,Wunderground v.1.15,2013-05-27 11:30:00,
2013-05-27 07:35:00,58.8,56.5,30.25,ENE,65,0.0,4.0,92,0.00,,,0.00,Wunderground v.1.15,2013-05-27 11:35:00,
2013-05-27 07:40:00,59.1,56.8,30.25,ENE,65,0.0,4.0,92,0.00,,,0.00,Wunderground v.1.15,2013-05-27 11:40:00,
2013-05-27 07:45:00,59.6,57.3,30.26,ENE,65,0.0,4.0,92,0.00,,,0.00,Wunderground v.1.15,2013-05-27 11:45:00,
2013-05-27 07:50:00,60.3,58.0,30.25,ENE,65,0.0,4.0,92,0.00,,,0.00,Wunderground v.1.15,2013-05-27 11:50:00,
2013-05-27 07:55:00,61.3,58.7,30.26,ENE,65,0.0,4.0,91,0.00,,,0.00,Wunderground v.1.15,2013-05-27 11:55:00,
2013-05-27 08:00:00,62.6,59.3,30.26,West,267,1.0,4.0,89,0.00,,,0.00,Wunderground v.1.15,2013-05-27 12:00:00,
2013-05-27 08:05:00,63.2,58.6,30.26,West,267,1.0,4.0,85,0.00,,,0.00,Wunderground v.1.15,2013-05-27 12:05:00,
2013-05-27 08:10:00,63.9,59.0,30.26,West,267,0.0,4.0,84,0.00,,,0.00,Wunderground v.1.15,2013-05-27 12:10:00,
2013-05-27 08:20:00,65.0,58.3,30.26,WSW,255,1.0,1.0,79,0.00,,,0.00,Wunderground v.1.15,2013-05-27 12:20:00,
2013-05-27 08:25:00,65.5,58.5,30.26,WSW,255,0.0,4.0,78,0.00,,,0.00,Wunderground v.1.15,2013-05-27 12:25:00,
2013-05-27 08:30:00,66.0,58.2,30.26,WSW,255,0.0,4.0,76,0.00,,,0.00,Wunderground v.1.15,2013-05-27 12:30:00,
2013-05-27 08:35:00,66.2,57.7,30.26,WSW,252,1.0,4.0,74,0.00,,,0.00,Wunderground v.1.15,2013-05-27 12:35:00,
2013-05-27 08:40:00,66.5,58.3,30.26,West,280,1.0,1.0,75,0.00,,,0.00,Wunderground v.1.15,2013-05-27 12:40:00,
2013-05-27 08:45:00,67.0,58.4,30.26,SW,232,1.0,4.0,74,0.00,,,0.00,Wunderground v.1.15,2013-05-27 12:45:00,
2013-05-27 08:50:00,67.4,58.4,30.26,West,273,1.0,4.0,73,0.00,,,0.00,Wunderground v.1.15,2013-05-27 12:50:00,
2013-05-27 08:55:00,67.7,58.7,30.26,WSW,251,1.0,4.0,73,0.00,,,0.00,Wunderground v.1.15,2013-05-27 12:55:00,
2013-05-27 09:00:00,67.9,57.4,30.26,WNW,299,1.0,4.0,69,0.00,,,0.00,Wunderground v.1.15,2013-05-27 13:00:00,
2013-05-27 09:05:00,67.8,58.4,30.26,WSW,252,2.0,4.0,72,0.00,,,0.00,Wunderground v.1.15,2013-05-27 13:05:00,
2013-05-27 09:10:00,68.2,58.8,30.26,SSW,205,2.0,2.0,72,0.00,,,0.00,Wunderground v.1.15,2013-05-27 13:10:00,
2013-05-27 09:15:00,68.6,58.8,30.27,West,267,0.0,2.0,71,0.00,,,0.00,Wunderground v.1.15,2013-05-27 13:15:00,
2013-05-27 09:20:00,68.9,59.1,30.26,WSW,258,0.0,2.0,71,0.00,,,0.00,Wunderground v.1.15,2013-05-27 13:20:00,
2013-05-27 09:25:00,69.0,58.4,30.26,South,190,1.0,2.0,69,0.00,,,0.00,Wunderground v.1.15,2013-05-27 13:25:00,
2013-05-27 09:35:00,68.9,58.3,30.26,West,267,2.0,3.0,69,0.00,,,0.00,Wunderground v.1.15,2013-05-27 13:35:00,
2013-05-27 09:40:00,69.0,58.8,30.26,WNW,300,1.0,1.0,70,0.00,,,0.00,Wunderground v.1.15,2013-05-27 13:40:00,
2013-05-27 09:45:00,69.4,58.8,30.26,West,277,1.0,1.0,69,0.00,,,0.00,Wunderground v.1.15,2013-05-27 13:45:00,
2013-05-27 09:50:00,69.6,59.0,30.26,SW,225,1.0,1.0,69,0.00,,,0.00,Wunderground v.1.15,2013-05-27 13:50:00,
2013-05-27 09:55:00,69.9,59.7,30.26,WNW,301,1.0,1.0,70,0.00,,,0.00,Wunderground v.1.15,2013-05-27 13:55:00,
2013-05-27 10:00:00,70.3,58.8,30.25,West,271,1.0,2.0,67,0.00,,,0.00,Wunderground v.1.15,2013-05-27 14:00:00,
2013-05-27 10:05:00,70.1,59.0,30.25,WSW,253,1.0,3.0,68,0.00,,,0.00,Wunderground v.1.15,2013-05-27 14:05:00,
2013-05-27 10:10:00,70.6,60.3,30.25,WSW,253,1.0,1.0,70,0.00,,,0.00,Wunderground v.1.15,2013-05-27 14:10:00,
2013-05-27 10:15:00,70.9,59.4,30.25,WSW,257,1.0,6.0,67,0.00,,,0.00,Wunderground v.1.15,2013-05-27 14:15:00,
2013-05-27 10:20:00,71.2,59.3,30.25,WSW,258,1.0,6.0,66,0.00,,,0.00,Wunderground v.1.15,2013-05-27 14:20:00,
2013-05-27 10:25:00,71.1,58.7,30.25,West,276,1.0,6.0,65,0.00,,,0.00,Wunderground v.1.15,2013-05-27 14:25:00,
2013-05-27 10:30:00,71.3,59.4,30.25,West,265,1.0,6.0,66,0.00,,,0.00,Wunderground v.1.15,2013-05-27 14:30:00,
2013-05-27 10:35:00,71.1,58.7,30.25,West,279,1.0,6.0,65,0.00,,,0.00,Wunderground v.1.15,2013-05-27 14:35:00,
2013-05-27 10:40:00,71.3,60.6,30.25,West,276,1.0,1.0,69,0.00,,,0.00,Wunderground v.1.15,2013-05-27 14:40:00,
2013-05-27 10:45:00,71.4,59.9,30.25,NE,42,1.0,6.0,67,0.00,,,0.00,Wunderground v.1.15,2013-05-27 14:45:00,
2013-05-27 10:50:00,71.9,59.5,30.25,NW,323,1.0,6.0,65,0.00,,,0.00,Wunderground v.1.15,2013-05-27 14:50:00,
2013-05-27 10:55:00,72.1,58.4,30.24,WNW,286,1.0,6.0,62,0.00,,,0.00,Wunderground v.1.15,2013-05-27 14:55:00,
2013-05-27 11:00:00,72.4,58.6,30.24,WNW,290,2.0,2.0,62,0.00,,,0.00,Wunderground v.1.15,2013-05-27 15:00:00,
2013-05-27 11:05:00,73.0,59.2,30.24,WNW,288,1.0,6.0,62,0.00,,,0.00,Wunderground v.1.15,2013-05-27 15:05:00,
2013-05-27 11:10:00,73.2,58.5,30.24,WNW,284,1.0,6.0,60,0.00,,,0.00,Wunderground v.1.15,2013-05-27 15:10:00,
2013-05-27 11:15:00,73.4,58.2,30.24,WNW,298,2.0,6.0,59,0.00,,,0.00,Wunderground v.1.15,2013-05-27 15:15:00,
2013-05-27 11:20:00,73.5,59.2,30.24,East,87,1.0,1.0,61,0.00,,,0.00,Wunderground v.1.15,2013-05-27 15:20:00,
2013-05-27 11:25:00,73.9,60.1,30.24,West,266,1.0,6.0,62,0.00,,,0.00,Wunderground v.1.15,2013-05-27 15:25:00,
2013-05-27 11:30:00,74.2,58.9,30.24,West,271,1.0,6.0,59,0.00,,,0.00,Wunderground v.1.15,2013-05-27 15:30:00,
2013-05-27 11:35:00,74.3,59.0,30.24,West,278,2.0,6.0,59,0.00,,,0.00,Wunderground v.1.15,2013-05-27 15:35:00,
2013-05-27 11:40:00,74.2,59.4,30.24,North,5,2.0,2.0,60,0.00,,,0.00,Wunderground v.1.15,2013-05-27 15:40:00,
2013-05-27 11:45:00,74.6,60.3,30.23,WNW,296,2.0,6.0,61,0.00,,,0.00,Wunderground v.1.15,2013-05-27 15:45:00,
2013-05-27 11:50:00,75.0,58.7,30.23,WNW,294,1.0,6.0,57,0.00,,,0.00,Wunderground v.1.15,2013-05-27 15:50:00,
2013-05-27 11:55:00,74.8,59.5,30.23,WSW,246,2.0,6.0,59,0.00,,,0.00,Wunderground v.1.15,2013-05-27 15:55:00,
2013-05-27 12:00:00,74.8,59.0,30.23,West,269,2.0,6.0,58,0.00,,,0.00,Wunderground v.1.15,2013-05-27 16:00:00,
2013-05-27 12:05:00,75.0,59.2,30.23,West,280,2.0,6.0,58,0.00,,,0.00,Wunderground v.1.15,2013-05-27 16:05:00,
2013-05-27 12:10:00,75.4,58.1,30.23,West,275,2.0,6.0,55,0.00,,,0.00,Wunderground v.1.15,2013-05-27 16:10:00,
2013-05-27 12:15:00,75.5,59.2,30.23,WSW,250,1.0,6.0,57,0.00,,,0.00,Wunderground v.1.15,2013-05-27 16:15:00,
2013-05-27 12:20:00,75.7,60.4,30.23,SSW,213,1.0,1.0,59,0.00,,,0.00,Wunderground v.1.15,2013-05-27 16:20:00,
2013-05-27 12:25:00,76.1,58.8,30.23,NW,311,1.0,6.0,55,0.00,,,0.00,Wunderground v.1.15,2013-05-27 16:25:00,
2013-05-27 12:30:00,76.3,58.9,30.23,WNW,284,1.0,6.0,55,0.00,,,0.00,Wunderground v.1.15,2013-05-27 16:30:00,
2013-05-27 12:35:00,76.8,60.4,30.23,NW,320,1.0,6.0,57,0.00,,,0.00,Wunderground v.1.15,2013-05-27 16:35:00,
2013-05-27 12:40:00,77.0,59.1,30.23,WNW,288,1.0,6.0,54,0.00,,,0.00,Wunderground v.1.15,2013-05-27 16:40:00,
2013-05-27 12:45:00,77.0,59.6,30.23,WNW,295,2.0,6.0,55,0.00,,,0.00,Wunderground v.1.15,2013-05-27 16:45:00,
2013-05-27 12:50:00,76.9,60.0,30.23,West,263,2.0,2.0,56,0.00,,,0.00,Wunderground v.1.15,2013-05-27 16:50:00,
2013-05-27 12:55:00,77.0,58.6,30.23,SE,145,2.0,6.0,53,0.00,,,0.00,Wunderground v.1.15,2013-05-27 16:55:00,
2013-05-27 13:00:00,76.9,59.0,30.23,West,269,2.0,2.0,54,0.00,,,0.00,Wunderground v.1.15,2013-05-27 17:00:00,
2013-05-27 13:05:00,77.1,58.1,30.22,SW,230,2.0,6.0,52,0.00,,,0.00,Wunderground v.1.15,2013-05-27 17:05:00,
2013-05-27 13:10:00,77.3,59.4,30.22,West,273,1.0,6.0,54,0.00,,,0.00,Wunderground v.1.15,2013-05-27 17:10:00,
2013-05-27 13:15:00,77.5,60.1,30.22,WNW,293,1.0,6.0,55,0.00,,,0.00,Wunderground v.1.15,2013-05-27 17:15:00,
2013-05-27 13:20:00,77.7,58.7,30.22,WNW,285,1.0,1.0,52,0.00,,,0.00,Wunderground v.1.15,2013-05-27 17:20:00,
2013-05-27 13:25:00,77.9,57.8,30.22,West,273,2.0,2.0,50,0.00,,,0.00,Wunderground v.1.15,2013-05-27 17:25:00,
2013-05-27 13:30:00,77.9,57.8,30.22,NW,307,2.0,2.0,50,0.00,,,0.00,Wunderground v.1.15,2013-05-27 17:30:00,
2013-05-27 13:40:00,78.1,59.6,30.21,West,281,2.0,6.0,53,0.00,,,0.00,Wunderground v.1.15,2013-05-27 17:40:00,
2013-05-27 13:45:00,78.1,59.0,30.21,West,260,2.0,6.0,52,0.00,,,0.00,Wunderground v.1.15,2013-05-27 17:45:00,
2013-05-27 13:50:00,78.3,59.8,30.21,West,259,2.0,2.0,53,0.00,,,0.00,Wunderground v.1.15,2013-05-27 17:50:00,
2013-05-27 13:55:00,78.7,60.7,30.21,NW,309,1.0,6.0,54,0.00,,,0.00,Wunderground v.1.15,2013-05-27 17:55:00,
2013-05-27 14:00:00,79.0,59.3,30.21,West,262,1.0,6.0,51,0.00,,,0.00,Wunderground v.1.15,2013-05-27 18:00:00,
2013-05-27 14:05:00,78.6,59.5,30.21,WNW,288,2.0,6.0,52,0.00,,,0.00,Wunderground v.1.15,2013-05-27 18:05:00,
2013-05-27 14:10:00,78.7,61.7,30.21,WNW,283,3.0,3.0,56,0.00,,,0.00,Wunderground v.1.15,2013-05-27 18:10:00,
2013-05-27 14:15:00,79.1,59.4,30.21,WSW,248,2.0,6.0,51,0.00,,,0.00,Wunderground v.1.15,2013-05-27 18:15:00,
2013-05-27 14:20:00,79.1,59.4,30.21,WNW,294,1.0,6.0,51,0.00,,,0.00,Wunderground v.1.15,2013-05-27 18:20:00,
2013-05-27 14:25:00,79.3,58.5,30.20,WNW,285,1.0,6.0,49,0.00,,,0.00,Wunderground v.1.15,2013-05-27 18:25:00,
2013-05-27 14:30:00,79.4,59.7,30.20,West,275,2.0,6.0,51,0.00,,,0.00,Wunderground v.1.15,2013-05-27 18:30:00,
2013-05-27 14:35:00,79.5,58.1,30.20,WNW,283,1.0,6.0,48,0.00,,,0.00,Wunderground v.1.15,2013-05-27 18:35:00,
2013-05-27 14:40:00,79.9,59.0,30.20,NW,306,1.0,1.0,49,0.00,,,0.00,Wunderground v.1.15,2013-05-27 18:40:00,
2013-05-27 14:45:00,80.1,59.2,30.19,West,275,1.0,6.0,49,0.00,,,0.00,Wunderground v.1.15,2013-05-27 18:45:00,
2013-05-27 14:50:00,80.3,61.1,30.19,NW,306,1.0,6.0,52,0.00,,,0.00,Wunderground v.1.15,2013-05-27 18:50:00,
2013-05-27 14:55:00,80.2,59.3,30.19,West,280,1.0,6.0,49,0.00,,,0.00,Wunderground v.1.15,2013-05-27 18:55:00,
2013-05-27 15:00:00,80.3,59.4,30.19,West,263,1.0,6.0,49,0.00,,,0.00,Wunderground v.1.15,2013-05-27 19:00:00,
2013-05-27 15:05:00,80.2,58.7,30.19,SSW,195,1.0,6.0,48,0.00,,,0.00,Wunderground v.1.15,2013-05-27 19:05:00,
2013-05-27 15:10:00,80.5,58.4,30.18,WSW,238,1.0,1.0,47,0.00,,,0.00,Wunderground v.1.15,2013-05-27 19:10:00,
2013-05-27 15:15:00,81.2,60.8,30.18,SW,227,0.0,6.0,50,0.00,,,0.00,Wunderground v.1.15,2013-05-27 19:15:00,
2013-05-27 15:20:00,81.3,62.5,30.18,West,277,1.0,1.0,53,0.00,,,0.00,Wunderground v.1.15,2013-05-27 19:20:00,
2013-05-27 15:25:00,81.3,59.1,30.18,West,275,1.0,3.0,47,0.00,,,0.00,Wunderground v.1.15,2013-05-27 19:25:00,
2013-05-27 15:30:00,81.0,61.2,30.17,West,277,2.0,6.0,51,0.00,,,0.00,Wunderground v.1.15,2013-05-27 19:30:00,
2013-05-27 15:35:00,80.9,59.4,30.17,West,275,2.0,6.0,48,0.00,,,0.00,Wunderground v.1.15,2013-05-27 19:35:00,
2013-05-27 15:40:00,80.9,59.9,30.17,West,279,2.0,6.0,49,0.00,,,0.00,Wunderground v.1.15,2013-05-27 19:40:00,
2013-05-27 15:45:00,81.2,60.2,30.16,WNW,302,1.0,6.0,49,0.00,,,0.00,Wunderground v.1.15,2013-05-27 19:45:00,
2013-05-27 15:50:00,81.6,61.2,30.16,West,274,1.0,6.0,50,0.00,,,0.00,Wunderground v.1.15,2013-05-27 19:50:00,
2013-05-27 15:55:00,81.5,61.1,30.15,West,279,2.0,6.0,50,0.00,,,0.00,Wunderground v.1.15,2013-05-27 19:55:00,
2013-05-27 16:00:00,81.1,60.7,30.15,West,269,2.0,6.0,50,0.00,,,0.00,Wunderground v.1.15,2013-05-27 20:00:00,
2013-05-27 16:05:00,81.1,60.1,30.15,SSW,207,2.0,6.0,49,0.00,,,0.00,Wunderground v.1.15,2013-05-27 20:05:00,
2013-05-27 16:10:00,81.6,60.6,30.15,West,262,1.0,6.0,49,0.00,,,0.00,Wunderground v.1.15,2013-05-27 20:10:00,
2013-05-27 16:15:00,81.8,60.2,30.15,West,259,1.0,6.0,48,0.00,,,0.00,Wunderground v.1.15,2013-05-27 20:15:00,
2013-05-27 16:20:00,82.0,61.0,30.15,SSW,192,2.0,2.0,49,0.00,,,0.00,Wunderground v.1.15,2013-05-27 20:20:00,
2013-05-27 16:25:00,82.4,62.5,30.15,SW,221,1.0,6.0,51,0.00,,,0.00,Wunderground v.1.15,2013-05-27 20:25:00,
2013-05-27 16:30:00,82.4,61.9,30.15,West,274,1.0,6.0,50,0.00,,,0.00,Wunderground v.1.15,2013-05-27 20:30:00,
2013-05-27 16:35:00,82.5,60.8,30.15,SSE,154,1.0,6.0,48,0.00,,,0.00,Wunderground v.1.15,2013-05-27 20:35:00,
2013-05-27 16:40:00,82.3,60.6,30.15,West,264,1.0,6.0,48,0.00,,,0.00,Wunderground v.1.15,2013-05-27 20:40:00,
2013-05-27 16:45:00,81.8,61.3,30.15,West,259,2.0,6.0,50,0.00,,,0.00,Wunderground v.1.15,2013-05-27 20:45:00,
2013-05-27 16:50:00,82.0,59.8,30.15,SW,229,2.0,2.0,47,0.00,,,0.00,Wunderground v.1.15,2013-05-27 20:50:00,
2013-05-27 16:55:00,82.4,60.1,30.15,ENE,63,1.0,6.0,47,0.00,,,0.00,Wunderground v.1.15,2013-05-27 20:55:00,
2013-05-27 17:00:00,82.7,62.2,30.14,WNW,286,1.0,1.0,50,0.00,,,0.00,Wunderground v.1.15,2013-05-27 21:00:00,
2013-05-27 17:05:00,82.9,62.4,30.14,West,278,1.0,1.0,50,0.00,,,0.00,Wunderground v.1.15,2013-05-27 21:05:00,
2013-05-27 17:15:00,82.8,59.9,30.14,West,263,1.0,1.0,46,0.00,,,0.00,Wunderground v.1.15,2013-05-27 21:15:00,
2013-05-27 17:25:00,82.7,61.0,30.14,WSW,248,1.0,2.0,48,0.00,,,0.00,Wunderground v.1.15,2013-05-27 21:25:00,
2013-05-27 17:30:00,83.2,61.5,30.14,West,279,1.0,1.0,48,0.00,,,0.00,Wunderground v.1.15,2013-05-27 21:30:00,
2013-05-27 17:35:00,83.4,60.4,30.14,SW,234,1.0,1.0,46,0.00,,,0.00,Wunderground v.1.15,2013-05-27 21:35:00,
2013-05-27 17:40:00,83.2,60.3,30.14,WSW,250,1.0,1.0,46,0.00,,,0.00,Wunderground v.1.15,2013-05-27 21:40:00,
2013-05-27 17:45:00,83.1,60.8,30.14,NW,304,2.0,2.0,47,0.00,,,0.00,Wunderground v.1.15,2013-05-27 21:45:00,
2013-05-27 17:50:00,83.0,61.9,30.14,West,280,2.0,2.0,49,0.00,,,0.00,Wunderground v.1.15,2013-05-27 21:50:00,
2013-05-27 17:55:00,82.7,59.8,30.14,West,265,2.0,2.0,46,0.00,,,0.00,Wunderground v.1.15,2013-05-27 21:55:00,
2013-05-27 18:00:00,82.9,60.6,30.14,West,279,2.0,2.0,47,0.00,,,0.00,Wunderground v.1.15,2013-05-27 22:00:00,
2013-05-27 18:05:00,83.1,60.8,30.14,West,260,1.0,6.0,47,0.00,,,0.00,Wunderground v.1.15,2013-05-27 22:05:00,
2013-05-27 18:10:00,83.2,60.3,30.14,WNW,290,1.0,1.0,46,0.00,,,0.00,Wunderground v.1.15,2013-05-27 22:10:00,
2013-05-27 18:15:00,83.4,60.4,30.14,West,265,1.0,6.0,46,0.00,,,0.00,Wunderground v.1.15,2013-05-27 22:15:00,
2013-05-27 18:20:00,83.5,61.7,30.14,NW,312,1.0,6.0,48,0.00,,,0.00,Wunderground v.1.15,2013-05-27 22:20:00,
2013-05-27 18:25:00,83.5,61.1,30.13,West,274,1.0,6.0,47,0.00,,,0.00,Wunderground v.1.15,2013-05-27 22:25:00,
2013-05-27 18:30:00,83.6,60.0,30.13,WNW,288,1.0,6.0,45,0.00,,,0.00,Wunderground v.1.15,2013-05-27 22:30:00,
2013-05-27 18:35:00,83.4,61.7,30.13,West,275,1.0,6.0,48,0.00,,,0.00,Wunderground v.1.15,2013-05-27 22:35:00,
2013-05-27 18:40:00,83.3,60.4,30.13,West,275,1.0,6.0,46,0.00,,,0.00,Wunderground v.1.15,2013-05-27 22:40:00,
2013-05-27 18:45:00,83.1,60.8,30.13,West,278,1.0,6.0,47,0.00,,,0.00,Wunderground v.1.15,2013-05-27 22:45:00,
2013-05-27 18:50:00,83.1,62.0,30.13,WNW,296,1.0,1.0,49,0.00,,,0.00,Wunderground v.1.15,2013-05-27 22:50:00,
2013-05-27 18:55:00,83.1,60.8,30.13,West,276,1.0,2.0,47,0.00,,,0.00,Wunderground v.1.15,2013-05-27 22:55:00,
2013-05-27 19:00:00,82.8,60.5,30.13,West,276,1.0,1.0,47,0.00,,,0.00,Wunderground v.1.15,2013-05-27 23:00:00,
2013-05-27 19:05:00,82.5,60.8,30.13,West,278,1.0,6.0,48,0.00,,,0.00,Wunderground v.1.15,2013-05-27 23:05:00,
2013-05-27 19:10:00,82.3,61.8,30.13,West,278,0.0,6.0,50,0.00,,,0.00,Wunderground v.1.15,2013-05-27 23:10:00,
2013-05-27 19:20:00,81.0,61.2,30.14,West,276,1.0,6.0,51,0.00,,,0.00,Wunderground v.1.15,2013-05-27 23:20:00,
2013-05-27 19:25:00,80.6,60.8,30.14,West,276,1.0,6.0,51,0.00,,,0.00,Wunderground v.1.15,2013-05-27 23:25:00,
2013-05-27 19:30:00,80.5,60.7,30.14,West,276,0.0,6.0,51,0.00,,,0.00,Wunderground v.1.15,2013-05-27 23:30:00,
2013-05-27 19:35:00,80.2,61.0,30.14,WNW,287,0.0,6.0,52,0.00,,,0.00,Wunderground v.1.15,2013-05-27 23:35:00,
2013-05-27 19:40:00,79.7,62.1,30.14,WNW,287,0.0,6.0,55,0.00,,,0.00,Wunderground v.1.15,2013-05-27 23:40:00,
2013-05-27 19:45:00,79.4,61.8,30.14,WNW,287,0.0,6.0,55,0.00,,,0.00,Wunderground v.1.15,2013-05-27 23:45:00,
2013-05-27 19:50:00,79.1,62.1,30.14,WNW,287,0.0,6.0,56,0.00,,,0.00,Wunderground v.1.15,2013-05-27 23:50:00,
2013-05-27 19:55:00,78.9,62.4,30.14,WNW,287,0.0,6.0,57,0.00,,,0.00,Wunderground v.1.15,2013-05-27 23:55:00,
2013-05-27 20:00:00,78.4,62.4,30.14,WNW,287,0.0,6.0,58,0.00,,,0.00,Wunderground v.1.15,2013-05-28 00:00:00,
2013-05-27 20:05:00,78.1,62.1,30.14,WNW,287,0.0,6.0,58,0.00,,,0.00,Wunderground v.1.15,2013-05-28 00:05:00,
2013-05-27 20:10:00,77.7,62.2,30.14,WNW,287,0.0,6.0,59,0.00,,,0.00,Wunderground v.1.15,2013-05-28 00:10:00,
2013-05-27 20:15:00,77.4,62.4,30.14,WNW,287,0.0,6.0,60,0.00,,,0.00,Wunderground v.1.15,2013-05-28 00:15:00,
2013-05-27 20:20:00,77.1,62.6,30.14,WNW,287,0.0,6.0,61,0.00,,,0.00,Wunderground v.1.15,2013-05-28 00:20:00,
2013-05-27 20:25:00,76.7,62.7,30.14,WNW,287,0.0,6.0,62,0.00,,,0.00,Wunderground v.1.15,2013-05-28 00:25:00,
2013-05-27 20:30:00,76.4,62.4,30.14,WNW,287,0.0,6.0,62,0.00,,,0.00,Wunderground v.1.15,2013-05-28 00:30:00,
2013-05-27 20:35:00,76.1,62.6,30.13,North,5,0.0,6.0,63,0.00,,,0.00,Wunderground v.1.15,2013-05-28 00:35:00,
2013-05-27 20:40:00,75.7,61.8,30.13,North,5,0.0,6.0,62,0.00,,,0.00,Wunderground v.1.15,2013-05-28 00:40:00,
2013-05-27 20:45:00,75.3,60.9,30.13,North,5,0.0,6.0,61,0.00,,,0.00,Wunderground v.1.15,2013-05-28 00:45:00,
2013-05-27 20:50:00,75.3,61.8,30.13,NW,315,0.0,6.0,63,0.00,,,0.00,Wunderground v.1.15,2013-05-28 00:50:00,
2013-05-27 20:55:00,75.3,62.7,30.13,NW,315,0.0,6.0,65,0.00,,,0.00,Wunderground v.1.15,2013-05-28 00:55:00,
2013-05-27 21:00:00,75.5,63.3,30.12,NW,322,0.0,6.0,66,0.00,,,0.00,Wunderground v.1.15,2013-05-28 01:00:00,
2013-05-27 21:05:00,75.6,63.4,30.12,NW,322,0.0,6.0,66,0.00,,,0.00,Wunderground v.1.15,2013-05-28 01:05:00,
2013-05-27 21:10:00,75.6,63.0,30.13,NW,323,0.0,6.0,65,0.00,,,0.00,Wunderground v.1.15,2013-05-28 01:10:00,
2013-05-27 21:15:00,75.6,63.0,30.13,NW,323,0.0,6.0,65,0.00,,,0.00,Wunderground v.1.15,2013-05-28 01:15:00,
2013-05-27 21:20:00,75.5,62.5,30.12,NW,323,0.0,6.0,64,0.00,,,0.00,Wunderground v.1.15,2013-05-28 01:20:00,
2013-05-27 21:30:00,75.3,61.4,30.12,NNE,19,0.0,6.0,62,0.00,,,0.00,Wunderground v.1.15,2013-05-28 01:30:00,
2013-05-27 21:35:00,75.2,61.3,30.12,NNE,12,0.0,6.0,62,0.00,,,0.00,Wunderground v.1.15,2013-05-28 01:35:00,
2013-05-27 21:40:00,75.3,61.4,30.12,NW,315,0.0,-999.0,62,0.00,,,0.00,Wunderground v.1.15,2013-05-28 01:40:00,
2013-05-27 21:45:00,74.7,60.4,30.14,North,0,0.0,-999.0,61,0.00,,,0.00,Wunderground v.1.15,2013-05-28 01:45:00,
2013-05-27 21:50:00,74.7,60.4,30.14,North,0,0.0,-999.0,61,0.00,,,0.00,Wunderground v.1.15,2013-05-28 01:50:00,
2013-05-27 21:55:00,74.7,60.4,30.14,North,0,0.0,-999.0,61,0.00,,,0.00,Wunderground v.1.15,2013-05-28 01:55:00,
2013-05-27 22:00:00,74.7,60.4,30.14,North,0,0.0,-999.0,61,0.00,,,0.00,Wunderground v.1.15,2013-05-28 02:00:00,
2013-05-27 22:05:00,74.7,60.4,30.14,North,0,0.0,-999.0,61,0.00,,,0.00,Wunderground v.1.15,2013-05-28 02:05:00,
2013-05-27 22:10:00,74.7,60.4,30.14,North,0,0.0,-999.0,61,0.00,,,0.00,Wunderground v.1.15,2013-05-28 02:10:00,
2013-05-27 22:15:00,73.8,60.4,30.15,NE,45,0.0,-999.0,63,0.00,,,0.00,Wunderground v.1.15,2013-05-28 02:15:00,
2013-05-27 22:20:00,73.8,60.4,30.15,NE,45,0.0,-999.0,63,0.00,,,0.00,Wunderground v.1.15,2013-05-28 02:20:00,
2013-05-27 22:25:00,73.8,60.4,30.15,NE,45,0.0,-999.0,63,0.00,,,0.00,Wunderground v.1.15,2013-05-28 02:25:00,
2013-05-27 22:30:00,73.8,60.4,30.15,NE,45,0.0,-999.0,63,0.00,,,0.00,Wunderground v.1.15,2013-05-28 02:30:00,
2013-05-27 22:35:00,73.8,60.4,30.15,NE,45,0.0,-999.0,63,0.00,,,0.00,Wunderground v.1.15,2013-05-28 02:35:00,
2013-05-27 22:40:00,73.8,60.4,30.15,NE,45,0.0,-999.0,63,0.00,,,0.00,Wunderground v.1.15,2013-05-28 02:40:00,
2013-05-27 22:45:00,71.4,60.3,30.16,NE,45,0.0,-999.0,68,0.00,,,0.00,Wunderground v.1.15,2013-05-28 02:45:00,
2013-05-27 22:50:00,71.4,60.3,30.16,NE,45,0.0,-999.0,68,0.00,,,0.00,Wunderground v.1.15,2013-05-28 02:50:00,
2013-05-27 22:55:00,71.4,60.3,30.16,NE,45,0.0,-999.0,68,0.00,,,0.00,Wunderground v.1.15,2013-05-28 02:55:00,
2013-05-27 23:00:00,71.4,60.3,30.16,NE,45,0.0,-999.0,68,0.00,,,0.00,Wunderground v.1.15,2013-05-28 03:00:00,
2013-05-27 23:05:00,71.4,60.3,30.16,NE,45,0.0,-999.0,68,0.00,,,0.00,Wunderground v.1.15,2013-05-28 03:05:00,
2013-05-27 23:10:00,71.4,60.3,30.16,NE,45,0.0,-999.0,68,0.00,,,0.00,Wunderground v.1.15,2013-05-28 03:10:00,
2013-05-27 23:15:00,70.8,60.9,30.16,NE,45,0.0,-999.0,71,0.00,,,0.00,Wunderground v.1.15,2013-05-28 03:15:00,
2013-05-27 23:20:00,70.8,60.9,30.16,NE,45,0.0,-999.0,71,0.00,,,0.00,Wunderground v.1.15,2013-05-28 03:20:00,
2013-05-27 23:25:00,70.8,60.9,30.16,NE,45,0.0,-999.0,71,0.00,,,0.00,Wunderground v.1.15,2013-05-28 03:25:00,
2013-05-27 23:30:00,70.8,60.9,30.16,NE,45,0.0,-999.0,71,0.00,,,0.00,Wunderground v.1.15,2013-05-28 03:30:00,
2013-05-27 23:35:00,70.8,60.9,30.16,NE,45,0.0,-999.0,71,0.00,,,0.00,Wunderground v.1.15,2013-05-28 03:35:00,
2013-05-27 23:40:00,70.8,60.9,30.16,NE,45,0.0,-999.0,71,0.00,,,0.00,Wunderground v.1.15,2013-05-28 03:40:00,
2013-05-27 23:45:00,69.9,60.8,30.17,N/A,-737280,0.0,-999.0,73,0.00,,,0.00,Wunderground v.1.15,2013-05-28 03:45:00,
2013-05-27 23:50:00,69.9,60.8,30.17,N/A,-737280,0.0,-999.0,73,0.00,,,0.00,Wunderground v.1.15,2013-05-28 03:50:00,
2013-05-27 23:55:00,69.9,60.8,30.17,N/A,-737280,0.0,-999.0,73,0.00,,,0.00,Wunderground v.1.15,2013-05-28 03:55:00,